.
WxDataArchive / Data Records for 2006-03-23
2006-03-22 March 2006 2006-03-24

Data Records for Thursday, 23 March 2006

Time	Temp	Chill	HIndex	Humid	Dewpt	 Wind 	HiWind	WindDir	Rain 	Barom 
-----	----	-----	------	-----	-----	------	------	-------	-----	----- 
00:00	31.8	31.8	31.8	75	24.8	0	0	---	0.00	30.187 
00:05	31.9	31.9	31.9	74	24.6	0	0	---	0.00	30.187 
00:10	31.9	31.9	31.9	75	24.9	0	0	---	0.00	30.187 
00:15	32.2	32.2	32.2	77	25.8	0	2	270	0.00	30.184 
00:20	32.4	32.4	32.4	77	26.0	0	0	---	0.00	30.184 
00:25	32.4	32.4	32.4	77	26.0	0	0	---	0.00	30.184 
00:30	32.5	32.5	32.5	76	25.8	0	0	---	0.00	30.187 
00:35	32.5	32.5	32.5	76	25.8	0	0	---	0.00	30.187 
00:40	32.7	32.7	32.7	76	26.0	0	0	---	0.00	30.187 
00:45	32.7	32.7	32.7	76	26.0	0	1	270	0.00	30.197 
00:50	32.7	32.7	32.7	75	25.7	0	0	---	0.00	30.197 
00:55	32.7	32.7	32.7	75	25.7	0	0	---	0.00	30.197 
01:00	32.7	32.7	32.7	76	26.0	0	1	270	0.00	30.193 
01:05	32.7	32.7	32.7	75	25.7	0	0	---	0.00	30.193 
01:10	32.8	32.8	32.8	74	25.4	0	1	270	0.00	30.193 
01:15	32.9	32.9	32.9	74	25.5	0	1	270	0.00	30.197 
01:20	33.1	33.1	33.1	74	25.7	0	1	270	0.00	30.197 
01:25	33.1	33.1	33.1	75	26.1	0	1	270	0.00	30.197 
01:30	33.1	33.1	33.1	75	26.1	0	0	---	0.00	30.203 
01:35	33.1	33.1	33.1	75	26.1	0	0	---	0.00	30.203 
01:40	33.1	33.1	33.1	75	26.1	0	1	270	0.00	30.203 
01:45	33.1	33.1	33.1	74	25.7	0	3	158	0.00	30.204 
01:50	33.1	33.1	33.1	74	25.7	0	1	158	0.00	30.204 
01:55	33.1	33.1	33.1	74	25.7	0	0	---	0.00	30.204 
02:00	32.9	32.9	32.9	74	25.5	0	2	158	0.00	30.198 
02:05	33.1	33.1	33.1	73	25.4	1	2	158	0.00	30.198 
02:10	33.1	33.1	33.1	73	25.4	1	2	158	0.00	30.198 
02:15	33.1	33.1	33.1	72	25.1	1	2	135	0.00	30.191 
02:20	33.1	33.1	33.1	73	25.4	0	2	135	0.00	30.191 
02:25	33.1	33.1	33.1	72	25.1	0	1	135	0.00	30.191 
02:30	33.1	33.1	33.1	72	25.1	0	0	---	0.00	30.190 
02:35	32.9	32.9	32.9	73	25.2	0	1	135	0.00	30.190 
02:40	32.9	32.9	32.9	73	25.2	0	2	135	0.00	30.190 
02:45	32.8	32.8	32.8	73	25.1	0	1	135	0.00	30.190 
02:50	32.8	32.8	32.8	74	25.4	1	2	135	0.00	30.190 
02:55	32.7	32.7	32.7	74	25.3	0	1	112	0.00	30.190 
03:00	32.5	32.5	32.5	75	25.5	0	1	112	0.00	30.189 
03:05	32.4	32.4	32.4	75	25.4	0	1	112	0.00	30.189 
03:10	32.4	32.4	32.4	76	25.7	0	1	112	0.00	30.189 
03:15	32.2	32.2	32.2	77	25.8	1	1	112	0.00	30.185 
03:20	32.2	32.2	32.2	77	25.8	0	1	112	0.00	30.185 
03:25	32.1	32.1	32.1	76	25.4	0	1	112	0.00	30.185 
03:30	32.1	32.1	32.1	75	25.1	0	1	112	0.00	30.185 
03:35	32.2	32.2	32.2	75	25.2	0	1	112	0.00	30.185 
03:40	32.2	32.2	32.2	75	25.2	0	2	112	0.00	30.185 
03:45	32.2	32.2	32.2	75	25.2	0	1	112	0.00	30.179 
03:50	32.2	32.2	32.2	75	25.2	0	1	112	0.00	30.179 
03:55	32.2	32.2	32.2	75	25.2	0	0	---	0.00	30.179 
04:00	32.1	32.1	32.1	75	25.1	0	0	---	0.00	30.179 
04:05	31.9	31.9	31.9	74	24.6	0	1	112	0.00	30.179 
04:10	31.9	31.9	31.9	75	24.9	0	1	112	0.00	30.179 
04:15	31.9	31.9	31.9	74	24.6	0	1	112	0.00	30.178 
04:20	31.8	31.8	31.8	75	24.8	0	1	112	0.00	30.178 
04:25	31.8	31.8	31.8	75	24.8	0	0	---	0.00	30.178 
04:30	31.6	31.6	31.6	75	24.6	0	0	---	0.00	30.178 
04:35	31.5	31.5	31.5	76	24.8	0	1	112	0.00	30.178 
04:40	31.3	31.3	31.3	76	24.6	0	1	112	0.00	30.178 
04:45	31.2	31.2	31.2	77	24.8	0	0	---	0.00	30.180 
04:50	31.0	31.0	31.0	77	24.7	0	0	---	0.00	30.180 
04:55	30.9	30.9	30.9	77	24.6	0	0	---	0.00	30.180 
05:00	30.7	30.7	30.7	77	24.4	0	0	---	0.00	30.182 
05:05	30.6	30.6	30.6	77	24.3	0	0	---	0.00	30.182 
05:10	30.4	30.4	30.4	78	24.4	0	0	---	0.00	30.182 
05:15	30.4	30.4	30.4	79	24.7	0	0	---	0.00	30.188 
05:20	30.3	30.3	30.3	79	24.6	0	0	---	0.00	30.188 
05:25	30.1	30.1	30.1	79	24.4	0	0	---	0.00	30.188 
05:30	30.3	30.3	30.3	79	24.6	0	1	112	0.00	30.184 
05:35	30.3	30.3	30.3	79	24.6	0	0	---	0.00	30.184 
05:40	30.3	30.3	30.3	79	24.6	0	1	112	0.00	30.184 
05:45	30.3	30.3	30.3	80	24.9	0	0	---	0.00	30.182 
05:50	30.3	30.3	30.3	80	24.9	0	0	---	0.00	30.182 
05:55	30.4	30.4	30.4	80	25.0	0	0	---	0.00	30.182 
06:00	30.4	30.4	30.4	80	25.0	0	0	---	0.00	30.183 
06:05	30.4	30.4	30.4	80	25.0	0	0	---	0.00	30.183 
06:10	30.6	30.6	30.6	80	25.2	0	1	112	0.00	30.183 
06:15	30.6	30.6	30.6	80	25.2	0	0	---	0.00	30.190 
06:20	30.6	30.6	30.6	81	25.5	0	0	---	0.00	30.190 
06:25	30.6	30.6	30.6	81	25.5	0	0	---	0.00	30.190 
06:30	30.6	30.6	30.6	81	25.5	0	1	112	0.00	30.195 
06:35	30.6	30.6	30.6	81	25.5	0	1	112	0.00	30.195 
06:40	30.7	30.7	30.7	81	25.6	0	0	---	0.00	30.195 
06:45	30.7	30.7	30.7	81	25.6	0	0	---	0.00	30.196 
06:50	30.7	30.7	30.7	81	25.6	0	0	---	0.00	30.196 
06:55	30.7	30.7	30.7	81	25.6	0	0	---	0.00	30.196 
07:00	30.7	30.7	30.7	81	25.6	0	0	---	0.00	30.197 
07:05	30.7	30.7	30.7	81	25.6	0	0	---	0.00	30.197 
07:10	30.7	30.7	30.7	82	25.9	0	0	---	0.00	30.197 
07:15	30.9	30.9	30.9	82	26.1	0	1	112	0.00	30.200 
07:20	31.0	31.0	31.0	82	26.2	0	0	---	0.00	30.200 
07:25	31.2	31.2	31.2	82	26.4	0	0	---	0.00	30.200 
07:30	31.3	31.3	31.3	82	26.5	0	0	---	0.00	30.207 
07:35	31.5	31.5	31.5	82	26.7	0	0	---	0.00	30.207 
07:40	31.6	31.6	31.6	81	26.5	0	1	112	0.00	30.207 
07:45	31.8	31.8	31.8	81	26.6	0	0	---	0.00	30.211 
07:50	31.9	31.9	31.9	81	26.7	0	1	112	0.00	30.211 
07:55	32.1	32.1	32.1	80	26.6	0	1	112	0.00	30.211 
08:00	32.4	32.4	32.4	80	26.9	0	1	112	0.00	30.210 
08:05	32.5	32.5	32.5	80	27.0	0	1	112	0.00	30.210 
08:10	32.7	32.7	32.7	80	27.2	0	2	112	0.00	30.210 
08:15	32.9	32.9	32.9	79	27.1	0	2	112	0.00	30.213 
08:20	33.2	33.2	33.2	79	27.4	0	2	112	0.00	30.213 
08:25	33.4	33.4	33.4	79	27.6	1	3	112	0.00	30.213 
08:30	33.5	33.5	33.5	78	27.4	0	2	112	0.00	30.210 
08:35	33.7	33.7	33.7	78	27.6	1	3	112	0.00	30.210 
08:40	33.8	33.8	33.8	78	27.7	2	4	90	0.00	30.210 
08:45	34.0	34.0	34.0	78	27.9	1	2	90	0.00	30.212 
08:50	34.3	34.3	34.3	78	28.2	1	3	68	0.00	30.212 
08:55	34.6	34.6	34.6	77	28.1	1	4	90	0.00	30.212 
09:00	34.7	34.7	34.7	76	27.9	1	3	90	0.00	30.214 
09:05	35.0	35.0	35.0	75	27.9	1	3	90	0.00	30.214 
09:10	35.2	35.2	35.2	74	27.8	2	4	90	0.00	30.214 
09:15	35.3	35.3	35.3	74	27.9	2	4	112	0.00	30.217 
09:20	35.5	35.5	35.5	74	28.0	2	5	112	0.00	30.217 
09:25	35.6	35.6	35.6	74	28.1	2	4	90	0.00	30.217 
09:30	35.8	35.8	35.8	73	28.0	3	7	90	0.00	30.217 
09:35	35.8	35.8	35.8	73	28.0	3	7	90	0.00	30.217 
09:40	36.0	36.0	36.0	72	27.9	2	5	112	0.00	30.217 
09:45	36.3	36.3	36.3	71	27.8	3	6	90	0.00	30.218 
09:50	36.5	36.5	36.5	72	28.3	3	6	90	0.00	30.218 
09:55	36.8	36.8	36.8	70	27.9	2	5	90	0.00	30.218 
10:00	37.0	37.0	37.0	69	27.8	2	5	90	0.00	30.215 
10:05	37.0	33.9	37.0	67	27.1	4	9	112	0.00	30.215 
10:10	37.3	37.3	37.3	69	28.1	3	6	90	0.00	30.215 
10:15	37.6	37.6	37.6	66	27.3	3	7	112	0.00	30.212 
10:20	37.9	34.9	37.9	65	27.2	4	7	112	0.00	30.212 
10:25	38.3	35.4	38.3	64	27.2	4	10	112	0.00	30.212 
10:30	38.6	38.6	38.6	62	26.7	3	9	112	0.00	30.205 
10:35	38.8	35.1	38.8	62	26.9	5	10	90	0.00	30.205 
10:40	38.8	35.1	38.8	61	26.5	5	11	112	0.00	30.205 
10:45	38.9	36.0	38.9	61	26.6	4	7	112	0.00	30.205 
10:50	39.2	35.5	39.2	62	27.3	5	9	90	0.00	30.205 
10:55	39.6	36.0	39.6	60	26.9	5	9	112	0.00	30.205 
11:00	39.8	37.1	39.8	59	26.7	4	8	112	0.00	30.200 
11:05	40.3	40.3	40.3	59	27.1	3	6	90	0.00	30.200 
11:10	40.5	40.5	40.5	56	26.1	3	6	90	0.00	30.200 
11:15	40.8	38.2	40.8	57	26.8	4	7	90	0.00	30.194 
11:20	40.6	37.2	40.6	58	27.0	5	11	112	0.00	30.194 
11:25	40.8	38.2	40.8	57	26.8	4	7	112	0.00	30.194 
11:30	40.9	40.9	40.9	57	26.9	3	7	90	0.00	30.192 
11:35	41.3	41.3	41.3	57	27.2	3	7	90	0.00	30.192 
11:40	41.5	41.5	41.5	55	26.6	2	10	68	0.00	30.192 
11:45	41.2	37.9	41.2	55	26.3	5	10	112	0.00	30.191 
11:50	41.3	41.3	41.3	55	26.4	3	7	90	0.00	30.191 
11:55	41.6	41.6	41.6	56	27.1	3	5	112	0.00	30.191 
12:00	41.9	41.9	41.9	58	28.2	1	4	45	0.00	30.187 
12:05	41.9	39.5	41.9	57	27.8	4	10	112	0.00	30.187 
12:10	41.5	38.2	41.5	54	26.1	5	9	112	0.00	30.187 
12:15	41.6	41.6	41.6	57	27.5	3	6	112	0.00	30.188 
12:20	41.9	41.9	41.9	57	27.8	2	4	112	0.00	30.188 
12:25	42.3	42.3	42.3	56	27.7	3	6	112	0.00	30.188 
12:30	42.6	42.6	42.6	54	27.1	1	4	45	0.00	30.187 
12:35	42.5	42.5	42.5	55	27.5	3	6	112	0.00	30.187 
12:40	42.3	42.3	42.3	56	27.7	3	6	90	0.00	30.187 
12:45	42.6	42.6	42.6	52	26.2	1	5	45	0.00	30.187 
12:50	42.8	42.8	42.8	53	26.9	1	4	112	0.00	30.187 
12:55	43.1	43.1	43.1	53	27.1	2	4	90	0.00	30.187 
13:00	43.1	43.1	43.1	53	27.1	1	3	90	0.00	30.187 
13:05	43.1	43.1	43.1	56	28.5	3	7	90	0.00	30.187 
13:10	42.8	42.8	42.8	54	27.3	3	6	90	0.00	30.187 
13:15	42.6	42.6	42.6	53	26.7	1	4	112	0.00	30.184 
13:20	42.9	42.9	42.9	56	28.3	1	2	45	0.00	30.184 
13:25	43.2	43.2	43.2	53	27.2	1	3	45	0.00	30.184 
13:30	42.9	42.9	42.9	54	27.4	2	5	90	0.00	30.182 
13:35	43.1	43.1	43.1	56	28.5	1	4	68	0.00	30.182 
13:40	43.2	43.2	43.2	54	27.7	2	5	112	0.00	30.182 
13:45	43.5	43.5	43.5	54	28.0	1	5	45	0.00	30.177 
13:50	43.5	43.5	43.5	54	28.0	2	5	112	0.00	30.177 
13:55	43.5	43.5	43.5	54	28.0	1	3	45	0.00	30.177 
14:00	43.3	43.3	43.3	52	26.9	1	5	90	0.00	30.176 
14:05	43.3	43.3	43.3	55	28.2	1	2	68	0.00	30.176 
14:10	43.6	43.6	43.6	52	27.1	1	4	338	0.00	30.176 
14:15	43.6	43.6	43.6	56	29.0	1	3	45	0.00	30.171 
14:20	43.8	43.8	43.8	52	27.3	3	6	112	0.00	30.171 
14:25	43.5	43.5	43.5	53	27.5	2	5	112	0.00	30.171 
14:30	43.9	43.9	43.9	53	27.9	1	4	45	0.00	30.164 
14:35	44.2	44.2	44.2	52	27.7	1	5	68	0.00	30.164 
14:40	44.1	44.1	44.1	53	28.1	1	4	22	0.00	30.164 
14:45	44.1	44.1	44.1	51	27.1	1	3	22	0.00	30.163 
14:50	44.2	44.2	44.2	54	28.6	1	3	68	0.00	30.163 
14:55	44.3	44.3	44.3	50	26.8	0	3	338	0.00	30.163 
15:00	44.5	44.5	44.5	50	27.0	0	2	338	0.00	30.157 
15:05	44.5	44.5	44.5	50	27.0	2	6	112	0.00	30.157 
15:10	44.3	44.3	44.3	49	26.4	1	5	90	0.00	30.157 
15:15	44.1	44.1	44.1	53	28.1	1	3	90	0.00	30.154 
15:20	43.9	43.9	43.9	50	26.5	2	5	112	0.00	30.154 
15:25	43.8	43.8	43.8	54	28.3	2	4	112	0.00	30.154 
15:30	43.8	43.8	43.8	54	28.3	2	4	90	0.00	30.151 
15:35	43.8	43.8	43.8	54	28.3	1	3	90	0.00	30.151 
15:40	43.8	43.8	43.8	52	27.3	1	2	0	0.00	30.151 
15:45	43.8	43.8	43.8	52	27.3	0	3	0	0.00	30.148 
15:50	43.9	43.9	43.9	53	27.9	1	2	22	0.00	30.148 
15:55	44.1	44.1	44.1	54	28.5	1	5	90	0.00	30.148 
16:00	44.1	44.1	44.1	51	27.1	1	4	22	0.00	30.145 
16:05	43.9	43.9	43.9	51	27.0	1	3	68	0.00	30.145 
16:10	43.6	43.6	43.6	52	27.1	1	2	338	0.00	30.145 
16:15	43.5	43.5	43.5	52	27.1	1	3	338	0.00	30.149 
16:20	43.5	43.5	43.5	52	27.1	1	3	0	0.00	30.149 
16:25	43.3	43.3	43.3	53	27.3	1	4	22	0.00	30.149 
16:30	43.3	43.3	43.3	53	27.3	0	2	22	0.00	30.148 
16:35	43.5	43.5	43.5	53	27.5	1	3	45	0.00	30.148 
16:40	43.2	43.2	43.2	52	26.8	1	2	0	0.00	30.148 
16:45	42.9	42.9	42.9	53	27.0	1	3	45	0.00	30.147 
16:50	42.6	42.6	42.6	53	26.7	1	5	45	0.00	30.147 
16:55	42.5	42.5	42.5	54	27.0	1	3	45	0.00	30.147 
17:00	42.6	42.6	42.6	54	27.1	1	3	68	0.00	30.148 
17:05	42.6	42.6	42.6	55	27.6	1	3	45	0.00	30.148 
17:10	42.5	42.5	42.5	54	27.0	1	2	0	0.00	30.148 
17:15	42.5	42.5	42.5	55	27.5	1	3	45	0.00	30.152 
17:20	42.5	42.5	42.5	54	27.0	1	3	315	0.00	30.152 
17:25	42.3	42.3	42.3	56	27.7	1	3	112	0.00	30.152 
17:30	42.2	42.2	42.2	54	26.8	1	2	90	0.00	30.155 
17:35	42.1	42.1	42.1	55	27.1	1	3	45	0.00	30.155 
17:40	41.9	41.9	41.9	55	26.9	1	2	0	0.00	30.155 
17:45	41.8	41.8	41.8	57	27.7	0	2	0	0.00	30.160 
17:50	41.6	41.6	41.6	55	26.6	1	2	0	0.00	30.160 
17:55	41.5	41.5	41.5	55	26.6	1	3	338	0.00	30.160 
18:00	41.3	41.3	41.3	56	26.8	0	3	22	0.00	30.165 
18:05	41.3	41.3	41.3	56	26.8	1	3	338	0.00	30.165 
18:10	41.2	41.2	41.2	57	27.1	0	3	22	0.00	30.165 
18:15	41.1	41.1	41.1	56	26.6	1	2	22	0.00	30.165 
18:20	41.1	41.1	41.1	57	27.0	0	2	22	0.00	30.165 
18:25	41.1	41.1	41.1	57	27.0	1	3	22	0.00	30.165 
18:30	40.9	40.9	40.9	57	26.9	0	2	22	0.00	30.169 
18:35	40.8	40.8	40.8	56	26.3	1	4	22	0.00	30.169 
18:40	40.8	40.8	40.8	57	26.8	1	2	0	0.00	30.169 
18:45	40.6	40.6	40.6	58	27.0	0	2	0	0.00	30.166 
18:50	40.5	40.5	40.5	57	26.5	1	3	0	0.00	30.166 
18:55	40.5	40.5	40.5	58	26.9	0	2	315	0.00	30.166 
19:00	40.3	40.3	40.3	58	26.7	0	1	315	0.00	30.168 
19:05	40.2	40.2	40.2	58	26.6	0	2	315	0.00	30.168 
19:10	40.2	40.2	40.2	58	26.6	0	1	315	0.00	30.168 
19:15	40.1	40.1	40.1	59	26.9	0	2	315	0.00	30.168 
19:20	40.1	40.1	40.1	59	26.9	0	3	315	0.00	30.168 
19:25	39.9	39.9	39.9	59	26.7	0	1	338	0.00	30.168 
19:30	39.9	39.9	39.9	58	26.3	0	2	338	0.00	30.166 
19:35	39.8	39.8	39.8	58	26.2	0	1	338	0.00	30.166 
19:40	39.8	39.8	39.8	58	26.2	0	1	338	0.00	30.166 
19:45	39.8	39.8	39.8	58	26.2	0	1	338	0.00	30.165 
19:50	39.6	39.6	39.6	59	26.5	0	1	338	0.00	30.165 
19:55	39.6	39.6	39.6	59	26.5	0	3	22	0.00	30.165 
20:00	39.6	39.6	39.6	59	26.5	0	1	22	0.00	30.164 
20:05	39.5	39.5	39.5	59	26.4	0	2	22	0.00	30.164 
20:10	39.5	39.5	39.5	59	26.4	0	1	22	0.00	30.164 
20:15	39.3	39.3	39.3	60	26.6	0	1	22	0.00	30.162 
20:20	39.3	39.3	39.3	60	26.6	0	1	22	0.00	30.162 
20:25	39.2	39.2	39.2	60	26.5	0	1	22	0.00	30.162 
20:30	39.2	39.2	39.2	60	26.5	0	1	22	0.00	30.163 
20:35	39.1	39.1	39.1	60	26.4	0	1	22	0.00	30.163 
20:40	39.1	39.1	39.1	60	26.4	0	2	22	0.00	30.163 
20:45	38.9	38.9	38.9	60	26.2	0	2	22	0.00	30.163 
20:50	38.9	38.9	38.9	60	26.2	0	1	0	0.00	30.163 
20:55	38.8	38.8	38.8	60	26.1	0	2	0	0.00	30.163 
21:00	38.8	38.8	38.8	60	26.1	0	2	0	0.00	30.163 
21:05	38.6	38.6	38.6	60	25.9	0	2	0	0.00	30.163 
21:10	38.6	38.6	38.6	61	26.3	0	3	0	0.00	30.163 
21:15	38.5	38.5	38.5	61	26.2	0	3	45	0.00	30.160 
21:20	38.5	38.5	38.5	61	26.2	0	1	45	0.00	30.160 
21:25	38.3	38.3	38.3	61	26.0	0	2	45	0.00	30.160 
21:30	38.3	38.3	38.3	61	26.0	0	2	45	0.00	30.160 
21:35	38.3	38.3	38.3	61	26.0	1	3	45	0.00	30.160 
21:40	38.3	38.3	38.3	61	26.0	1	3	68	0.00	30.160 
21:45	38.2	38.2	38.2	61	26.0	0	2	68	0.00	30.159 
21:50	38.2	38.2	38.2	62	26.3	0	2	68	0.00	30.159 
21:55	38.2	38.2	38.2	61	26.0	0	3	68	0.00	30.159 
22:00	38.0	38.0	38.0	61	25.8	1	3	45	0.00	30.158 
22:05	38.0	38.0	38.0	61	25.8	0	2	45	0.00	30.158 
22:10	37.9	37.9	37.9	62	26.1	0	1	45	0.00	30.158 
22:15	37.8	37.8	37.8	62	26.0	0	1	45	0.00	30.151 
22:20	37.8	37.8	37.8	62	26.0	0	2	45	0.00	30.151 
22:25	37.8	37.8	37.8	61	25.6	0	2	45	0.00	30.151 
22:30	37.6	37.6	37.6	62	25.8	0	1	45	0.00	30.149 
22:35	37.5	37.5	37.5	62	25.7	0	2	45	0.00	30.149 
22:40	37.3	37.3	37.3	62	25.5	0	1	45	0.00	30.149 
22:45	37.2	37.2	37.2	63	25.8	0	0	---	0.00	30.146 
22:50	37.0	37.0	37.0	63	25.6	0	0	---	0.00	30.146 
22:55	36.9	36.9	36.9	64	25.9	0	0	---	0.00	30.146 
23:00	36.8	36.8	36.8	64	25.8	0	1	45	0.00	30.145 
23:05	36.8	36.8	36.8	65	26.2	0	1	45	0.00	30.145 
23:10	36.8	36.8	36.8	64	25.8	0	2	45	0.00	30.145 
23:15	36.8	36.8	36.8	64	25.8	1	3	45	0.00	30.142 
23:20	36.8	36.8	36.8	64	25.8	1	2	68	0.00	30.142 
23:25	36.8	36.8	36.8	63	25.4	1	2	68	0.00	30.142 
23:30	36.8	36.8	36.8	63	25.4	1	2	68	0.00	30.139 
23:35	36.6	36.6	36.6	63	25.2	1	2	68	0.00	30.139 
23:40	36.6	36.6	36.6	63	25.2	1	3	68	0.00	30.139 
23:45	36.5	36.5	36.5	64	25.5	0	2	68	0.00	30.131 
23:50	36.3	36.3	36.3	64	25.3	0	2	68	0.00	30.131 
23:55	36.3	36.3	36.3	64	25.3	0	2	68	0.00	30.131 

CoCoRaHS
IN-AL-39
A2 Web Hosting
Creative Commons License
GoDaddy
Look for:

loaded 2017-10-17 22:25:08 • last modified 2010-11-18 10:43:29
Privacy PolicyDisclaimer
• wx.awcolley.com is powered by PmWiki v.2002016 •
• all content (unless otherwise noted) © 2017 A W Colley